Airport Name : Norwich

Other Name : Norwich

ICAO : EGSH

IATA : NWI

FAA :

Latitude : 52.675833

Longitude : 1.282778

Country : United Kingdom

Local Date and Time : 7/18/2018 11:11:00 PM

 

TAF (Terminal Aerodrome Forecast)

TAF EGSH 181956Z 1821/1824 10005KT 9999 FEW045

 

METAR (METeorological Aerodrome Report)

EGSH 182150Z AUTO 11003KT 9999 NCD 15/13 Q1020

EGSH 182120Z AUTO 09004KT 9999 NCD 15/12 Q1020

EGSH 182050Z AUTO 11004KT 9999 NCD 16/12 Q1019

EGSH 182020Z 10004KT CAVOK 17/12 Q1019 NOSIG

EGSH 181950Z 10005KT CAVOK 17/12 Q1019 NOSIG

EGSH 181920Z 10006KT CAVOK 18/12 Q1019 NOSIG

EGSH 181850Z 11007KT CAVOK 19/11 Q1019 NOSIG

EGSH 181820Z 10007KT CAVOK 20/11 Q1019 NOSIG